Mc Dermitt, Nevada
Current Conditions -  °F | °C
As of 7:56 AM on Saturday 20 Dec 2014 (Local Time) from KWMC Reporting Station
Light Rain Light Rain  
Wind Chill: 30°   Ceiling: 2400
Heat Index: 37°   Visibility: 6mi
Dew Point: 36°   Wind: 9mph
Humidity: 96%   Direction: 170°S
Pressure: 30.08"   Gusts: NA
Location:  41.9814°N, 117.672°W
Report Text: KWMC 201556Z AUTO 17008KT 6SM -RA BR OVC024 03/02 A3008 RMK AO2 SLP194 P0004 T00280022
Loading
Personal Weather Stations






























Interactive Weather Map New forecast layout! Learn more

10-Day Weather Forecast

Advertisements
Track Severe Weather on mobile